Time;durP1;ratioP1;P1;durP2;ratioP2;P2;SDS_P1;SDS_P2;PMS_P1;PMS_P2;Temp;Humidity;BMP_temperature;BMP_pressure;BME280_temperature;BME280_humidity;BME280_pressure;Samples;Min_cycle;Max_cycle;Signal;HPM_P1;HPM_P2
2022/10/31 00:00:51;;;;;;;19.58;10.55;;;;;;;;;;5032140;28;20091;-76
2022/10/31 00:03:17;;;;;;;20.23;11.25;;;;;;;;;;5035234;28;20045;-72
2022/10/31 00:05:49;;;;;;;25.02;11.88;;;;;;;;;;5039658;28;20040;-72
2022/10/31 00:08:16;;;;;;;18.67;10.68;;;;;;;;;;5025167;28;20078;-75
2022/10/31 00:10:42;;;;;;;21.92;10.57;;;;;;;;;;5024128;28;20083;-74
2022/10/31 00:13:09;;;;;;;29.08;11.02;;;;;;;;;;5030786;28;20037;-74
2022/10/31 00:15:36;;;;;;;23.40;11.88;;;;;;;;;;5029520;28;20092;-78
2022/10/31 00:18:02;;;;;;;23.00;12.60;;;;;;;;;;5029601;28;20435;-71
2022/10/31 00:20:28;;;;;;;24.88;11.60;;;;;;;;;;5037088;28;20137;-77
2022/10/31 00:22:54;;;;;;;22.60;11.75;;;;;;;;;;5031132;28;20041;-73
2022/10/31 00:25:20;;;;;;;23.17;11.77;;;;;;;;;;5027880;28;20033;-75
2022/10/31 00:27:46;;;;;;;19.10;11.90;;;;;;;;;;5029957;28;20418;-72
2022/10/31 00:30:12;;;;;;;21.38;12.65;;;;;;;;;;5026501;28;20135;-72
2022/10/31 00:32:38;;;;;;;20.48;11.85;;;;;;;;;;5027775;28;20037;-73
2022/10/31 00:35:05;;;;;;;15.23;11.07;;;;;;;;;;5031160;28;20397;-73
2022/10/31 00:37:31;;;;;;;20.35;12.70;;;;;;;;;;5031872;28;20033;-73
2022/10/31 00:39:57;;;;;;;24.88;12.85;;;;;;;;;;5026405;28;20040;-77
2022/10/31 00:42:23;;;;;;;22.88;12.13;;;;;;;;;;5028516;28;20101;-72
2022/10/31 00:44:49;;;;;;;25.27;13.73;;;;;;;;;;5033078;28;20049;-72
2022/10/31 00:47:15;;;;;;;20.17;12.15;;;;;;;;;;5031757;28;20025;-74
2022/10/31 00:49:41;;;;;;;21.70;12.60;;;;;;;;;;5031196;28;20511;-72
2022/10/31 00:52:07;;;;;;;23.67;12.70;;;;;;;;;;5032642;28;20021;-73
2022/10/31 00:54:33;;;;;;;25.02;13.40;;;;;;;;;;5029191;28;20061;-73
2022/10/31 00:56:59;;;;;;;22.48;13.05;;;;;;;;;;5038278;28;20177;-75
2022/10/31 00:59:25;;;;;;;19.85;12.27;;;;;;;;;;5027575;28;20021;-74
2022/10/31 01:01:51;;;;;;;21.10;13.07;;;;;;;;;;5030322;28;20054;-73
2022/10/31 01:04:17;;;;;;;23.75;12.68;;;;;;;;;;5028490;28;20038;-73
2022/10/31 01:06:43;;;;;;;22.50;12.18;;;;;;;;;;5019688;28;20033;-76
2022/10/31 01:09:09;;;;;;;22.38;12.07;;;;;;;;;;5023595;28;20038;-73
2022/10/31 01:11:35;;;;;;;23.50;11.63;;;;;;;;;;5005408;28;20032;-76
2022/10/31 01:14:01;;;;;;;19.83;11.55;;;;;;;;;;5036901;28;20417;-73
2022/10/31 01:16:29;;;;;;;25.05;11.95;;;;;;;;;;5030914;28;20041;-74
2022/10/31 01:18:55;;;;;;;25.90;12.45;;;;;;;;;;5018474;28;20499;-73
2022/10/31 01:21:23;;;;;;;23.13;11.85;;;;;;;;;;5031804;28;20045;-72
2022/10/31 01:23:49;;;;;;;24.33;12.65;;;;;;;;;;5025659;28;20548;-72
2022/10/31 01:26:15;;;;;;;22.73;13.20;;;;;;;;;;5028123;28;20053;-73
2022/10/31 01:28:55;;;;;;;24.13;12.07;;;;;;;;;;5024583;28;20041;-72
2022/10/31 01:31:22;;;;;;;19.92;12.68;;;;;;;;;;5035092;28;20437;-71
2022/10/31 01:33:48;;;;;;;26.80;12.50;;;;;;;;;;5026008;28;20037;-71
2022/10/31 01:36:25;;;;;;;27.48;13.73;;;;;;;;;;5028126;28;20200;-74
2022/10/31 01:38:52;;;;;;;24.38;13.82;;;;;;;;;;5030527;28;20386;-72
2022/10/31 01:41:20;;;;;;;20.88;12.55;;;;;;;;;;5026215;28;20044;-72
2022/10/31 01:43:52;;;;;;;23.45;12.32;;;;;;;;;;5024462;28;20044;-71
2022/10/31 01:46:21;;;;;;;19.70;12.98;;;;;;;;;;5027168;28;20033;-73
2022/10/31 01:48:47;;;;;;;22.85;12.73;;;;;;;;;;5025608;28;20056;-73
2022/10/31 01:51:14;;;;;;;22.45;13.50;;;;;;;;;;5029251;28;20104;-72
2022/10/31 01:53:41;;;;;;;18.88;12.27;;;;;;;;;;5024466;28;20087;-73
2022/10/31 01:56:08;;;;;;;23.25;13.43;;;;;;;;;;5028956;28;20045;-72
2022/10/31 01:58:34;;;;;;;23.08;13.88;;;;;;;;;;5024625;28;20060;-72
2022/10/31 02:01:01;;;;;;;21.25;12.75;;;;;;;;;;5022856;28;20097;-77
2022/10/31 02:03:28;;;;;;;19.55;13.40;;;;;;;;;;5030028;28;20091;-72
2022/10/31 02:05:56;;;;;;;22.60;13.52;;;;;;;;;;5043928;28;20033;-72
2022/10/31 02:08:30;;;;;;;30.08;14.93;;;;;;;;;;5024108;28;20057;-72
2022/10/31 02:10:57;;;;;;;22.70;13.55;;;;;;;;;;5025507;28;20414;-71
2022/10/31 02:13:23;;;;;;;23.60;13.07;;;;;;;;;;5026713;28;20053;-74
2022/10/31 02:15:51;;;;;;;23.65;13.98;;;;;;;;;;5015188;28;20022;-73
2022/10/31 02:18:18;;;;;;;23.85;13.95;;;;;;;;;;5024004;28;20108;-71
2022/10/31 02:20:59;;;;;;;21.48;13.63;;;;;;;;;;5029351;28;21145;-76
2022/10/31 02:23:34;;;;;;;23.75;14.77;;;;;;;;;;5023197;28;20490;-71
2022/10/31 02:26:24;;;;;;;29.10;15.13;;;;;;;;;;5030432;28;20030;-74
2022/10/31 02:28:50;;;;;;;16.67;13.38;;;;;;;;;;5026658;28;20063;-71
2022/10/31 02:31:54;;;;;;;20.75;13.40;;;;;;;;;;5028732;28;20025;-72
2022/10/31 02:34:27;;;;;;;20.02;12.50;;;;;;;;;;4961735;28;20085;-74
2022/10/31 02:36:56;;;;;;;20.92;13.40;;;;;;;;;;4966034;28;20048;-73
2022/10/31 02:39:37;;;;;;;24.10;12.48;;;;;;;;;;4995134;28;20121;-73
2022/10/31 02:42:12;;;;;;;19.98;11.75;;;;;;;;;;5027942;28;20371;-73
2022/10/31 02:44:56;;;;;;;19.42;11.98;;;;;;;;;;5029233;28;20039;-72
2022/10/31 02:47:30;;;;;;;18.23;12.82;;;;;;;;;;5027635;28;20125;-73
2022/10/31 02:50:05;;;;;;;23.42;12.27;;;;;;;;;;5027297;28;20040;-72
2022/10/31 02:52:32;;;;;;;19.70;12.00;;;;;;;;;;5026866;28;20034;-72
2022/10/31 02:54:58;;;;;;;21.80;12.15;;;;;;;;;;5027364;28;20025;-73
2022/10/31 02:57:32;;;;;;;20.80;12.45;;;;;;;;;;5029556;28;20039;-72
2022/10/31 03:00:01;;;;;;;22.60;12.93;;;;;;;;;;5028163;28;20478;-73
2022/10/31 03:02:33;;;;;;;20.50;12.13;;;;;;;;;;5023003;28;20475;-76
2022/10/31 03:05:18;;;;;;;26.73;12.50;;;;;;;;;;5029349;28;20049;-74
2022/10/31 03:08:03;;;;;;;17.35;11.25;;;;;;;;;;5023964;28;20026;-72
2022/10/31 03:10:43;;;;;;;17.40;10.73;;;;;;;;;;5016237;28;20112;-77
2022/10/31 03:13:35;;;;;;;19.42;11.52;;;;;;;;;;5024334;28;20033;-71
2022/10/31 03:16:06;;;;;;;24.80;11.38;;;;;;;;;;4999202;28;20048;-72
2022/10/31 03:18:34;;;;;;;18.60;11.82;;;;;;;;;;5029035;28;20397;-71
2022/10/31 03:21:13;;;;;;;19.08;11.55;;;;;;;;;;5023793;28;20061;-71
2022/10/31 03:23:39;;;;;;;17.55;9.68;;;;;;;;;;5026847;28;20044;-71
2022/10/31 03:26:06;;;;;;;20.58;10.82;;;;;;;;;;5015333;28;20513;-73
2022/10/31 03:28:37;;;;;;;19.35;10.80;;;;;;;;;;5028388;28;20027;-71
2022/10/31 03:31:03;;;;;;;18.20;10.57;;;;;;;;;;5019572;28;20425;-72
2022/10/31 03:33:31;;;;;;;18.23;11.25;;;;;;;;;;5030519;28;20041;-71
2022/10/31 03:36:00;;;;;;;22.48;11.57;;;;;;;;;;5016871;28;20033;-73
2022/10/31 03:38:27;;;;;;;19.08;11.57;;;;;;;;;;5019404;28;20021;-71
2022/10/31 03:40:55;;;;;;;17.88;10.52;;;;;;;;;;5028374;28;20109;-75
2022/10/31 03:43:25;;;;;;;18.17;11.75;;;;;;;;;;5029467;28;20523;-72
2022/10/31 03:45:51;;;;;;;19.15;11.73;;;;;;;;;;5021955;28;20029;-71
2022/10/31 03:48:18;;;;;;;20.70;11.25;;;;;;;;;;5043383;28;20390;-72
2022/10/31 03:50:57;;;;;;;17.13;11.68;;;;;;;;;;5022436;28;20104;-72
2022/10/31 03:53:33;;;;;;;19.88;11.38;;;;;;;;;;5025165;28;20038;-74
2022/10/31 03:56:15;;;;;;;21.23;12.32;;;;;;;;;;5026428;28;20030;-72
2022/10/31 03:58:53;;;;;;;18.30;11.60;;;;;;;;;;5024421;28;20044;-73
2022/10/31 04:01:20;;;;;;;17.90;11.93;;;;;;;;;;5020865;28;20080;-72
2022/10/31 04:03:46;;;;;;;23.58;12.13;;;;;;;;;;5040836;28;20417;-72
2022/10/31 04:06:14;;;;;;;20.33;11.80;;;;;;;;;;5033178;28;20064;-73
2022/10/31 04:08:42;;;;;;;26.85;12.95;;;;;;;;;;5031815;28;20030;-71
2022/10/31 04:11:09;;;;;;;20.58;12.70;;;;;;;;;;5025228;28;20408;-72
2022/10/31 04:13:36;;;;;;;14.52;11.07;;;;;;;;;;5028672;28;20033;-77
2022/10/31 04:16:02;;;;;;;16.33;11.55;;;;;;;;;;5022576;28;20630;-73
2022/10/31 04:18:28;;;;;;;16.98;12.10;;;;;;;;;;5033603;28;20101;-72
2022/10/31 04:21:05;;;;;;;21.42;12.00;;;;;;;;;;5022250;28;20057;-73
2022/10/31 04:23:32;;;;;;;23.38;12.20;;;;;;;;;;5017083;28;20103;-72
2022/10/31 04:25:58;;;;;;;22.98;12.80;;;;;;;;;;5022353;28;20033;-72
2022/10/31 04:28:24;;;;;;;21.15;12.90;;;;;;;;;;5033361;28;20029;-74
2022/10/31 04:30:50;;;;;;;18.55;11.98;;;;;;;;;;5024107;28;20057;-72
2022/10/31 04:33:17;;;;;;;17.92;12.07;;;;;;;;;;5030695;28;20351;-72
2022/10/31 04:35:43;;;;;;;16.63;12.45;;;;;;;;;;5026080;28;20041;-74
2022/10/31 04:38:09;;;;;;;19.42;12.82;;;;;;;;;;5024721;28;20204;-72
2022/10/31 04:40:35;;;;;;;25.30;12.02;;;;;;;;;;5029756;28;20026;-71
2022/10/31 04:43:01;;;;;;;13.48;11.05;;;;;;;;;;5051497;28;20047;-73
2022/10/31 04:45:27;;;;;;;20.58;12.00;;;;;;;;;;5024563;28;20483;-73
2022/10/31 04:47:53;;;;;;;20.08;12.60;;;;;;;;;;5024487;28;20041;-73
2022/10/31 04:50:19;;;;;;;19.67;12.95;;;;;;;;;;5030355;28;20037;-74
2022/10/31 04:52:46;;;;;;;22.35;11.85;;;;;;;;;;5032688;28;20032;-75
2022/10/31 04:55:12;;;;;;;25.10;12.63;;;;;;;;;;5027801;28;20056;-77
2022/10/31 04:57:42;;;;;;;18.90;12.82;;;;;;;;;;5031680;28;20037;-73
2022/10/31 05:00:08;;;;;;;22.40;13.00;;;;;;;;;;5009697;28;20426;-73
2022/10/31 05:02:34;;;;;;;20.67;12.18;;;;;;;;;;5039981;28;20053;-75
2022/10/31 05:05:00;;;;;;;24.13;12.35;;;;;;;;;;5024679;28;20065;-75
2022/10/31 05:07:26;;;;;;;18.88;12.18;;;;;;;;;;5025779;28;20175;-74
2022/10/31 05:09:52;;;;;;;19.23;12.43;;;;;;;;;;5033041;28;20112;-73
2022/10/31 05:12:18;;;;;;;20.15;12.55;;;;;;;;;;5026283;28;20028;-73
2022/10/31 05:14:44;;;;;;;21.17;12.45;;;;;;;;;;5032475;28;20052;-73
2022/10/31 05:17:10;;;;;;;17.48;13.57;;;;;;;;;;5027763;28;20041;-73
2022/10/31 05:19:36;;;;;;;19.38;13.32;;;;;;;;;;5022373;28;20033;-72
2022/10/31 05:22:02;;;;;;;21.55;13.55;;;;;;;;;;5032983;28;20489;-73
2022/10/31 05:24:28;;;;;;;20.83;13.52;;;;;;;;;;5022809;28;20060;-77
2022/10/31 05:26:54;;;;;;;25.20;14.05;;;;;;;;;;5025744;28;20565;-74
2022/10/31 05:29:20;;;;;;;17.45;12.93;;;;;;;;;;5030509;28;20057;-73
2022/10/31 05:31:46;;;;;;;17.55;12.13;;;;;;;;;;5023175;28;20119;-73
2022/10/31 05:34:12;;;;;;;19.13;12.65;;;;;;;;;;5028943;28;20033;-78
2022/10/31 05:36:38;;;;;;;21.05;15.15;;;;;;;;;;5019184;28;20428;-75
2022/10/31 05:39:04;;;;;;;22.50;13.55;;;;;;;;;;5024918;28;20128;-72
2022/10/31 05:41:30;;;;;;;28.13;17.63;;;;;;;;;;5016899;28;20381;-71
2022/10/31 05:43:56;;;;;;;18.23;15.30;;;;;;;;;;5023591;28;20042;-73
2022/10/31 05:46:22;;;;;;;25.77;16.95;;;;;;;;;;5035756;28;20033;-71
2022/10/31 05:48:48;;;;;;;24.70;16.65;;;;;;;;;;5026183;28;20060;-70
2022/10/31 05:51:14;;;;;;;24.33;16.38;;;;;;;;;;5032955;28;20474;-72
2022/10/31 05:53:40;;;;;;;24.65;14.15;;;;;;;;;;5033523;28;20026;-75
2022/10/31 05:56:06;;;;;;;27.48;15.43;;;;;;;;;;5032097;28;20497;-71
2022/10/31 05:58:32;;;;;;;25.98;15.57;;;;;;;;;;5024748;28;20041;-72
2022/10/31 06:00:58;;;;;;;26.27;14.65;;;;;;;;;;5028590;28;20469;-73
2022/10/31 06:03:24;;;;;;;20.95;15.23;;;;;;;;;;5033913;28;20049;-75
2022/10/31 06:05:50;;;;;;;32.40;18.65;;;;;;;;;;5024845;28;20068;-71
2022/10/31 06:08:16;;;;;;;26.42;15.25;;;;;;;;;;5027023;28;20026;-70
2022/10/31 06:10:42;;;;;;;22.63;15.98;;;;;;;;;;5032305;28;20049;-72
2022/10/31 06:13:08;;;;;;;22.73;15.30;;;;;;;;;;5024448;28;20083;-71
2022/10/31 06:15:34;;;;;;;23.60;14.30;;;;;;;;;;5012802;28;20030;-73
2022/10/31 06:18:01;;;;;;;18.45;14.57;;;;;;;;;;5031574;28;20678;-77
2022/10/31 06:20:27;;;;;;;26.42;15.35;;;;;;;;;;5028795;28;20038;-72
2022/10/31 06:22:54;;;;;;;21.35;14.50;;;;;;;;;;5030424;28;20044;-71
2022/10/31 06:25:20;;;;;;;27.60;14.48;;;;;;;;;;5016568;28;20045;-72
2022/10/31 06:27:46;;;;;;;20.20;14.15;;;;;;;;;;5012755;28;20037;-71
2022/10/31 06:30:12;;;;;;;20.40;13.77;;;;;;;;;;5028591;28;20359;-73
2022/10/31 06:32:38;;;;;;;20.73;15.25;;;;;;;;;;5042265;28;20090;-75
2022/10/31 06:35:05;;;;;;;26.77;14.77;;;;;;;;;;5032487;28;20440;-72
2022/10/31 06:37:31;;;;;;;20.27;15.00;;;;;;;;;;5032149;28;20478;-72
2022/10/31 06:39:57;;;;;;;22.55;14.93;;;;;;;;;;5026414;28;20112;-73
2022/10/31 06:42:23;;;;;;;31.02;18.05;;;;;;;;;;5029070;28;20033;-73
2022/10/31 06:44:48;;;;;;;27.13;16.10;;;;;;;;;;5033966;28;20046;-70
2022/10/31 06:47:14;;;;;;;39.78;26.30;;;;;;;;;;5023329;28;20041;-76
2022/10/31 06:49:42;;;;;;;27.30;17.58;;;;;;;;;;5023619;28;20092;-76
2022/10/31 06:52:08;;;;;;;38.72;23.35;;;;;;;;;;5024220;28;20033;-76
2022/10/31 06:54:34;;;;;;;32.97;19.77;;;;;;;;;;5034656;28;20895;-74
2022/10/31 06:57:01;;;;;;;27.58;17.90;;;;;;;;;;5023972;28;20132;-73
2022/10/31 06:59:27;;;;;;;24.40;16.92;;;;;;;;;;5026235;28;20032;-74
2022/10/31 07:01:53;;;;;;;24.55;16.65;;;;;;;;;;5028823;28;20120;-74
2022/10/31 07:04:19;;;;;;;25.88;16.35;;;;;;;;;;5023827;28;20132;-74
2022/10/31 07:06:45;;;;;;;25.25;17.00;;;;;;;;;;5028700;28;20025;-73
2022/10/31 07:09:11;;;;;;;25.42;17.63;;;;;;;;;;5024389;28;20047;-73
2022/10/31 07:11:37;;;;;;;29.83;17.42;;;;;;;;;;5029345;28;20112;-76
2022/10/31 07:14:03;;;;;;;25.48;16.27;;;;;;;;;;5021204;28;20109;-74
2022/10/31 07:16:29;;;;;;;25.38;17.45;;;;;;;;;;5026053;28;20512;-73
2022/10/31 07:18:55;;;;;;;25.67;16.90;;;;;;;;;;5022744;28;20021;-71
2022/10/31 07:21:21;;;;;;;85.05;61.88;;;;;;;;;;5022454;28;20059;-80
2022/10/31 07:23:48;;;;;;;50.25;33.20;;;;;;;;;;5015761;28;20439;-73
2022/10/31 07:26:14;;;;;;;52.10;34.78;;;;;;;;;;5025659;28;20060;-74
2022/10/31 07:28:40;;;;;;;33.15;19.05;;;;;;;;;;5047303;28;20025;-75
2022/10/31 07:31:06;;;;;;;31.05;17.48;;;;;;;;;;5023575;28;20065;-74
2022/10/31 07:33:32;;;;;;;25.23;17.90;;;;;;;;;;5022028;28;20117;-74
2022/10/31 07:35:58;;;;;;;29.77;16.58;;;;;;;;;;5018914;28;20197;-75
2022/10/31 07:38:24;;;;;;;27.20;17.88;;;;;;;;;;5025169;28;20148;-74
2022/10/31 07:40:54;;;;;;;24.63;17.50;;;;;;;;;;5034201;28;20084;-74
2022/10/31 07:43:20;;;;;;;23.35;16.58;;;;;;;;;;5034189;28;20029;-73
2022/10/31 07:45:52;;;;;;;19.33;14.93;;;;;;;;;;5043945;28;20092;-73
2022/10/31 07:48:18;;;;;;;22.23;16.02;;;;;;;;;;5029432;28;20026;-74
2022/10/31 07:50:44;;;;;;;21.67;15.48;;;;;;;;;;5032158;28;20029;-73
2022/10/31 07:53:12;;;;;;;26.38;16.83;;;;;;;;;;5037359;28;20108;-80
2022/10/31 07:55:38;;;;;;;29.85;17.55;;;;;;;;;;5031546;28;20029;-79
2022/10/31 07:58:09;;;;;;;27.00;16.23;;;;;;;;;;5029904;28;20061;-76
2022/10/31 08:00:35;;;;;;;24.85;15.88;;;;;;;;;;5030014;28;20040;-73
2022/10/31 08:03:02;;;;;;;25.77;16.08;;;;;;;;;;5044170;28;20057;-74
2022/10/31 08:05:29;;;;;;;24.77;15.43;;;;;;;;;;5028635;28;20124;-74
2022/10/31 08:07:55;;;;;;;19.75;14.10;;;;;;;;;;5043972;28;20478;-77
2022/10/31 08:10:21;;;;;;;25.27;15.02;;;;;;;;;;5027654;28;20029;-75
2022/10/31 08:12:47;;;;;;;24.30;16.10;;;;;;;;;;5034442;28;20033;-74
2022/10/31 08:15:13;;;;;;;24.23;16.02;;;;;;;;;;5033455;28;20052;-73
2022/10/31 08:17:39;;;;;;;27.77;16.45;;;;;;;;;;5017399;28;20026;-74
2022/10/31 08:20:06;;;;;;;24.75;16.77;;;;;;;;;;5025473;28;20041;-74
2022/10/31 08:22:32;;;;;;;22.25;15.73;;;;;;;;;;5026541;28;20034;-74
2022/10/31 08:24:58;;;;;;;24.15;16.30;;;;;;;;;;5015687;28;20048;-73
2022/10/31 08:27:24;;;;;;;25.45;16.42;;;;;;;;;;5013565;28;20030;-75
2022/10/31 08:29:50;;;;;;;20.00;14.98;;;;;;;;;;5013024;28;20041;-76
2022/10/31 08:32:16;;;;;;;23.45;15.80;;;;;;;;;;5002204;28;20119;-75
2022/10/31 08:34:42;;;;;;;26.35;16.90;;;;;;;;;;5023213;28;20045;-83
2022/10/31 08:37:08;;;;;;;24.08;16.00;;;;;;;;;;5005715;28;20038;-73
2022/10/31 08:39:34;;;;;;;25.98;16.50;;;;;;;;;;5014090;28;20041;-72
2022/10/31 08:42:00;;;;;;;25.13;15.73;;;;;;;;;;5008659;28;20026;-73
2022/10/31 08:44:26;;;;;;;34.33;15.77;;;;;;;;;;5014042;28;20049;-78
2022/10/31 08:46:52;;;;;;;21.65;15.27;;;;;;;;;;5008203;28;20033;-78
2022/10/31 08:49:18;;;;;;;21.90;16.05;;;;;;;;;;5005868;28;20216;-72
2022/10/31 08:51:43;;;;;;;20.50;15.90;;;;;;;;;;5014301;28;20764;-72
2022/10/31 08:54:09;;;;;;;22.85;16.13;;;;;;;;;;5012001;28;20030;-72
2022/10/31 08:56:35;;;;;;;21.85;15.35;;;;;;;;;;5014560;28;20068;-73
2022/10/31 08:59:01;;;;;;;22.13;16.02;;;;;;;;;;5019412;28;20037;-72
2022/10/31 09:01:27;;;;;;;21.60;14.77;;;;;;;;;;5013358;28;20042;-73
2022/10/31 09:03:53;;;;;;;24.85;16.35;;;;;;;;;;5002153;28;20082;-73
2022/10/31 09:06:19;;;;;;;25.98;16.33;;;;;;;;;;5017108;28;20463;-73
2022/10/31 09:08:45;;;;;;;25.20;15.85;;;;;;;;;;5018272;28;20248;-73
2022/10/31 09:11:11;;;;;;;27.48;16.52;;;;;;;;;;5010373;28;20475;-72
2022/10/31 09:13:37;;;;;;;29.80;16.83;;;;;;;;;;5016006;28;20037;-72
2022/10/31 09:16:03;;;;;;;26.58;16.58;;;;;;;;;;5019759;28;20479;-74
2022/10/31 09:18:31;;;;;;;24.73;16.98;;;;;;;;;;4992067;28;20430;-78
2022/10/31 09:20:58;;;;;;;24.30;16.27;;;;;;;;;;5019202;28;20073;-75
2022/10/31 09:23:24;;;;;;;19.92;14.88;;;;;;;;;;5029342;28;20034;-73
2022/10/31 09:25:51;;;;;;;22.20;15.05;;;;;;;;;;5034938;28;20029;-73
2022/10/31 09:28:18;;;;;;;17.10;14.65;;;;;;;;;;5016829;28;20505;-73
2022/10/31 09:30:46;;;;;;;23.20;15.93;;;;;;;;;;5031208;28;20374;-73
2022/10/31 09:33:13;;;;;;;25.33;13.27;;;;;;;;;;5026043;28;20037;-74
2022/10/31 09:35:39;;;;;;;20.50;13.82;;;;;;;;;;5029630;28;20402;-77
2022/10/31 09:38:10;;;;;;;23.63;14.32;;;;;;;;;;5024666;28;20061;-73
2022/10/31 09:40:37;;;;;;;20.08;12.15;;;;;;;;;;5031095;28;20025;-72
2022/10/31 09:43:07;;;;;;;17.02;13.75;;;;;;;;;;5035726;28;20028;-72
2022/10/31 09:45:59;;;;;;;17.77;12.88;;;;;;;;;;5026470;28;20049;-75
2022/10/31 09:48:54;;;;;;;19.90;12.73;;;14.20;99.90;;;;;;5024185;28;20041;-73
2022/10/31 09:51:23;;;;;;;17.23;12.77;;;;;;;;;;5024240;28;20498;-72
2022/10/31 09:53:54;;;;;;;19.27;12.70;;;;;;;;;;5026596;28;20037;-72
2022/10/31 09:56:21;;;;;;;19.17;12.60;;;;;;;;;;5020165;28;20028;-73
2022/10/31 09:58:59;;;;;;;17.75;13.68;;;;;;;;;;5030254;28;20534;-72
2022/10/31 10:01:35;;;;;;;18.70;11.45;;;;;;;;;;5030337;28;20047;-72
2022/10/31 10:04:19;;;;;;;15.30;11.38;;;15.70;99.90;;;;;;5027869;28;20131;-74
2022/10/31 10:06:47;;;;;;;15.85;11.40;;;;;;;;;;5032774;28;20501;-72
2022/10/31 10:09:13;;;;;;;19.17;12.32;;;;;;;;;;5024179;28;20478;-73
2022/10/31 10:11:58;;;;;;;19.55;12.35;;;;;;;;;;5010759;28;20041;-73
2022/10/31 10:14:27;;;;;;;20.25;13.20;;;;;;;;;;5030708;28;20445;-76
2022/10/31 10:16:56;;;;;;;20.08;11.93;;;;;;;;;;5034532;28;20038;-74
2022/10/31 10:19:22;;;;;;;16.20;11.40;;;;;;;;;;5025832;28;20021;-73
2022/10/31 10:22:00;;;;;;;18.27;11.98;;;;;;;;;;5030969;28;20556;-73
2022/10/31 10:24:57;;;;;;;19.35;12.32;;;20.80;99.90;;;;;;5031878;28;20052;-73
2022/10/31 10:27:42;;;;;;;19.67;12.35;;;;;;;;;;5016074;28;20122;-73
2022/10/31 10:30:08;;;;;;;19.98;12.25;;;;;;;;;;5031008;28;20026;-77
2022/10/31 10:32:53;;;;;;;17.60;11.15;;;;;;;;;;5024825;28;20025;-73
2022/10/31 10:35:19;;;;;;;16.35;11.55;;;;;;;;;;5044925;28;20029;-74
2022/10/31 10:37:47;;;;;;;23.00;11.30;;;;;;;;;;5009261;28;20051;-72
2022/10/31 10:40:13;;;;;;;21.00;11.02;;;;;;;;;;5036341;28;20040;-76
2022/10/31 10:48:16;;;;;;;16.23;11.38;;;;;;;;;;5028961;28;20079;-74
2022/10/31 10:50:48;;;;;;;17.40;11.95;;;;;;;;;;5025584;28;20048;-77
2022/10/31 10:53:38;;;;;;;20.88;11.73;;;;;;;;;;5031219;28;20032;-72
2022/10/31 10:56:12;;;;;;;16.23;11.82;;;;;;;;;;5025832;28;20089;-80
2022/10/31 10:58:39;;;;;;;19.25;11.32;;;;;;;;;;5031338;28;20022;-74
2022/10/31 11:01:10;;;;;;;18.23;11.68;;;;;;;;;;5028202;28;20083;-74
2022/10/31 11:03:36;;;;;;;18.35;11.88;;;;;;;;;;5016796;28;20038;-74
2022/10/31 11:06:02;;;;;;;19.08;11.18;;;;;;;;;;5029692;28;20121;-73
2022/10/31 11:08:33;;;;;;;16.40;11.43;;;;;;;;;;5027847;28;20079;-75
2022/10/31 11:11:04;;;;;;;17.08;10.55;;;;;;;;;;5028873;28;20041;-77
2022/10/31 11:13:30;;;;;;;15.77;11.27;;;;;;;;;;5006665;28;20113;-75
2022/10/31 11:15:59;;;;;;;17.20;11.80;;;;;;;;;;5029322;28;20025;-73
2022/10/31 11:18:26;;;;;;;17.73;12.80;;;;;;;;;;5028495;28;20027;-73
2022/10/31 11:20:54;;;;;;;23.25;11.95;;;;;;;;;;5030546;28;20042;-72
2022/10/31 11:23:20;;;;;;;19.40;11.73;;;;;;;;;;5033396;28;20420;-72
2022/10/31 11:25:57;;;;;;;21.50;12.98;;;;;;;;;;5027691;28;20037;-72
2022/10/31 11:28:24;;;;;;;18.48;12.23;;;;;;;;;;5029905;28;20037;-79
2022/10/31 11:30:55;;;;;;;19.58;12.45;;;;;;;;;;5029564;28;20482;-73
2022/10/31 11:33:41;;;;;;;21.20;12.73;;;;;;;;;;5021876;28;20030;-73
2022/10/31 11:36:27;;;;;;;17.83;13.05;;;;;;;;;;5025107;28;20041;-78
2022/10/31 11:38:53;;;;;;;19.35;12.45;;;;;;;;;;5030864;28;20025;-73
2022/10/31 11:41:38;;;;;;;18.25;12.00;;;;;;;;;;5031981;28;20029;-72
2022/10/31 11:44:13;;;;;;;19.67;11.07;;;;;;;;;;5024574;28;20044;-72
2022/10/31 11:46:41;;;;;;;17.98;11.60;;;;;;;;;;5016786;28;20025;-73
2022/10/31 11:49:15;;;;;;;17.85;9.65;;;;;;;;;;5018844;28;20058;-72
2022/10/31 11:51:42;;;;;;;13.35;8.80;;;;;;;;;;5026306;28;20466;-74
2022/10/31 11:54:18;;;;;;;16.13;9.25;;;;;;;;;;5027971;28;20055;-74
2022/10/31 11:56:44;;;;;;;12.40;8.35;;;;;;;;;;5028278;28;20025;-73
2022/10/31 11:59:23;;;;;;;15.50;9.50;;;;;;;;;;5020228;28;20040;-72
2022/10/31 12:01:50;;;;;;;13.65;7.68;;;;;;;;;;5029539;28;20484;-72
2022/10/31 12:04:19;;;;;;;12.68;7.63;;;;;;;;;;5022782;28;20112;-75
2022/10/31 12:06:46;;;;;;;11.98;6.68;;;;;;;;;;5027134;28;20076;-73
2022/10/31 12:09:26;;;;;;;10.85;6.38;;;;;;;;;;5011115;28;20041;-75
2022/10/31 12:11:59;;;;;;;15.40;5.80;;;;;;;;;;5020868;28;20078;-72
2022/10/31 12:14:46;;;;;;;15.32;6.88;;;;;;;;;;5012005;28;20048;-73
2022/10/31 12:17:24;;;;;;;11.55;6.65;;;;;;;;;;5025591;28;20036;-73
2022/10/31 12:19:54;;;;;;;13.18;6.45;;;;;;;;;;5024500;28;20053;-72
2022/10/31 12:22:23;;;;;;;14.65;7.40;;;;;;;;;;5029797;28;20175;-74
2022/10/31 12:24:52;;;;;;;12.23;6.30;;;;;;;;;;5028371;28;20382;-72
2022/10/31 12:27:27;;;;;;;10.90;6.18;;;;;;;;;;5023330;28;20069;-72
2022/10/31 12:30:03;;;;;;;16.23;6.60;;;;;;;;;;5032712;28;20548;-73
2022/10/31 12:32:44;;;;;;;13.00;5.72;;;;;;;;;;5034334;28;20028;-74
2022/10/31 12:35:39;;;;;;;9.40;5.78;;;;;;;;;;5031728;28;20033;-72
2022/10/31 12:38:11;;;;;;;8.23;6.03;;;;;;;;;;4995668;28;20026;-73
2022/10/31 12:40:43;;;;;;;12.48;5.93;;;;;;;;;;5031182;28;20041;-72
2022/10/31 12:43:17;;;;;;;10.60;6.10;;;;;;;;;;5033609;28;20458;-72
2022/10/31 12:45:50;;;;;;;13.95;6.22;;;;;;;;;;5031678;28;20719;-73
2022/10/31 12:48:34;;;;;;;11.48;5.90;;;;;;;;;;5031243;28;20030;-72
2022/10/31 12:51:12;;;;;;;13.73;6.88;;;;;;;;;;5046164;28;20532;-73
2022/10/31 12:53:45;;;;;;;13.13;6.43;;;;;;;;;;5031753;28;20030;-74
2022/10/31 12:56:17;;;;;;;14.05;6.60;;;;;;;;;;5029802;28;20030;-72
2022/10/31 12:58:50;;;;;;;9.98;6.18;;;;;;;;;;5033669;28;20033;-73
2022/10/31 13:01:26;;;;;;;11.77;7.22;;;;;;;;;;5025606;28;20473;-72
2022/10/31 13:03:56;;;;;;;14.45;6.43;;;;;;;;;;5030727;28;20042;-73
2022/10/31 13:06:25;;;;;;;8.80;5.78;;;;;;;;;;5032480;28;20040;-73
2022/10/31 13:08:54;;;;;;;9.88;6.00;;;;;;;;;;5011044;28;20033;-73
2022/10/31 13:11:24;;;;;;;13.50;6.13;;;;;;;;;;5030992;28;20025;-73
2022/10/31 13:14:06;;;;;;;12.48;6.82;;;;;;;;;;5027764;28;20021;-78
2022/10/31 13:16:39;;;;;;;10.93;6.60;;;;;;;;;;5027348;28;20036;-72
2022/10/31 13:19:11;;;;;;;9.98;6.68;;;;;;;;;;5023601;28;20505;-72
2022/10/31 13:21:46;;;;;;;14.00;6.32;;;;;;;;;;5032514;28;20064;-74
2022/10/31 13:24:20;;;;;;;10.43;6.30;;;;;;;;;;5047411;28;20114;-72
2022/10/31 13:26:52;;;;;;;13.55;6.45;;;;;;;;;;5029464;28;20031;-71
2022/10/31 13:29:25;;;;;;;12.10;5.82;;;;;;;;;;5032552;28;20025;-77
2022/10/31 13:31:51;;;;;;;11.05;6.32;;;;;;;;;;5023229;28;20036;-75
2022/10/31 13:34:17;;;;;;;18.45;5.88;;;;;;;;;;5040491;28;20381;-74
2022/10/31 13:36:52;;;;;;;10.70;5.82;;;;;;;;;;5029767;28;20030;-73
2022/10/31 13:39:33;;;;;;;14.55;5.68;;;;;;;;;;5043172;28;20642;-71
2022/10/31 13:41:59;;;;;;;11.15;5.55;;;;;;;;;;5023868;28;20029;-73
2022/10/31 13:44:26;;;;;;;9.18;5.60;;;;;;;;;;5029163;28;20037;-75
2022/10/31 13:46:56;;;;;;;7.35;4.45;;;;;;;;;;5029036;28;20053;-79
2022/10/31 13:49:29;;;;;;;9.65;5.00;;;;;;;;;;5030274;28;20502;-77
2022/10/31 13:52:13;;;;;;;9.52;4.35;;;;;;;;;;5023074;28;20044;-76
2022/10/31 13:54:44;;;;;;;13.02;4.70;;;;;;;;;;5018453;28;20116;-73
2022/10/31 13:57:22;;;;;;;9.40;4.15;;;;;;;;;;5032632;28;20025;-73
2022/10/31 13:59:56;;;;;;;11.27;4.72;;;;;;;;;;5035969;28;20029;-72
2022/10/31 14:02:26;;;;;;;8.35;3.83;;;;;;;;;;5028631;28;20053;-72
2022/10/31 14:04:55;;;;;;;10.95;5.13;;;;;;;;;;5030535;28;20430;-72
2022/10/31 14:07:24;;;;;;;8.18;3.72;;;;;;;;;;5024580;28;20102;-78
2022/10/31 14:10:02;;;;;;;11.18;4.00;;;;;;;;;;5027318;28;20030;-73
2022/10/31 14:12:28;;;;;;;13.65;4.07;;;;;;;;;;5029960;28;20033;-72
2022/10/31 14:15:01;;;;;;;6.78;3.63;;;;;;;;;;5027703;28;20402;-73
2022/10/31 14:17:32;;;;;;;8.40;4.00;;;;;;;;;;5029547;28;20084;-73
2022/10/31 14:20:10;;;;;;;10.40;3.92;;;;;;;;;;5030609;28;20557;-72
2022/10/31 14:22:38;;;;;;;10.75;4.03;;;;;;;;;;5011163;28;20050;-73
2022/10/31 14:25:22;;;;;;;9.75;3.40;;;;;;;;;;5031448;28;20525;-73
2022/10/31 14:27:48;;;;;;;10.80;4.32;;;;;;;;;;4991393;28;20028;-73
2022/10/31 14:30:15;;;;;;;17.92;4.93;;;;;;;;;;5007609;28;20030;-72
2022/10/31 14:32:43;;;;;;;8.70;4.05;;;;;;;;;;5020883;28;20032;-72
2022/10/31 14:35:13;;;;;;;13.88;4.30;;;;;;;;;;5004311;28;20386;-72
2022/10/31 14:37:39;;;;;;;9.20;3.67;;;;;;;;;;5017132;28;20037;-72